sensor_id;sensor_type;location;lat;lon;timestamp;P1;durP1;ratioP1;P2;durP2;ratioP2
23718;SDS011;43322;52.230;5.702;2023-08-12T00:02:23;8.88;;;6.00;;
23718;SDS011;43322;52.230;5.702;2023-08-12T00:04:49;10.30;;;7.00;;
23718;SDS011;43322;52.230;5.702;2023-08-12T00:07:16;10.10;;;6.85;;
23718;SDS011;43322;52.230;5.702;2023-08-12T00:09:44;9.70;;;7.25;;
23718;SDS011;43322;52.230;5.702;2023-08-12T00:12:11;9.98;;;7.05;;
23718;SDS011;43322;52.230;5.702;2023-08-12T00:14:37;7.65;;;6.78;;
23718;SDS011;43322;52.230;5.702;2023-08-12T00:17:04;9.15;;;7.28;;
23718;SDS011;43322;52.230;5.702;2023-08-12T00:19:31;9.38;;;7.70;;
23718;SDS011;43322;52.230;5.702;2023-08-12T00:21:57;7.00;;;6.22;;
23718;SDS011;43322;52.230;5.702;2023-08-12T00:24:24;8.57;;;7.10;;
23718;SDS011;43322;52.230;5.702;2023-08-12T00:26:52;6.90;;;6.30;;
23718;SDS011;43322;52.230;5.702;2023-08-12T00:29:19;8.18;;;6.43;;
23718;SDS011;43322;52.230;5.702;2023-08-12T00:31:45;7.65;;;7.05;;
23718;SDS011;43322;52.230;5.702;2023-08-12T00:34:12;8.48;;;6.53;;
23718;SDS011;43322;52.230;5.702;2023-08-12T00:36:39;8.25;;;7.45;;
23718;SDS011;43322;52.230;5.702;2023-08-12T00:39:05;7.38;;;6.60;;
23718;SDS011;43322;52.230;5.702;2023-08-12T00:41:32;7.85;;;7.05;;
23718;SDS011;43322;52.230;5.702;2023-08-12T00:44:00;8.07;;;6.85;;
23718;SDS011;43322;52.230;5.702;2023-08-12T00:46:27;10.27;;;6.57;;
23718;SDS011;43322;52.230;5.702;2023-08-12T00:48:54;7.82;;;7.10;;
23718;SDS011;43322;52.230;5.702;2023-08-12T00:51:20;9.35;;;6.97;;
23718;SDS011;43322;52.230;5.702;2023-08-12T00:53:47;7.30;;;6.57;;
23718;SDS011;43322;52.230;5.702;2023-08-12T00:56:16;10.43;;;6.82;;
23718;SDS011;43322;52.230;5.702;2023-08-12T00:58:43;7.07;;;6.38;;
23718;SDS011;43322;52.230;5.702;2023-08-12T01:01:12;7.60;;;6.95;;
23718;SDS011;43322;52.230;5.702;2023-08-12T01:03:39;9.88;;;7.72;;
23718;SDS011;43322;52.230;5.702;2023-08-12T01:06:07;10.05;;;6.78;;
23718;SDS011;43322;52.230;5.702;2023-08-12T01:08:33;6.30;;;5.80;;
23718;SDS011;43322;52.230;5.702;2023-08-12T01:11:02;8.23;;;6.60;;
23718;SDS011;43322;52.230;5.702;2023-08-12T01:13:34;9.02;;;7.00;;
23718;SDS011;43322;52.230;5.702;2023-08-12T01:16:10;6.93;;;6.47;;
23718;SDS011;43322;52.230;5.702;2023-08-12T01:18:42;7.57;;;6.80;;
23718;SDS011;43322;52.230;5.702;2023-08-12T01:21:10;8.75;;;7.82;;
23718;SDS011;43322;52.230;5.702;2023-08-12T01:23:43;8.07;;;7.10;;
23718;SDS011;43322;52.230;5.702;2023-08-12T01:26:11;8.07;;;7.30;;
23718;SDS011;43322;52.230;5.702;2023-08-12T01:28:37;7.72;;;7.03;;
23718;SDS011;43322;52.230;5.702;2023-08-12T01:31:05;8.57;;;6.93;;
23718;SDS011;43322;52.230;5.702;2023-08-12T01:33:39;8.88;;;7.53;;
23718;SDS011;43322;52.230;5.702;2023-08-12T01:36:12;9.02;;;8.05;;
23718;SDS011;43322;52.230;5.702;2023-08-12T01:38:43;9.35;;;6.93;;
23718;SDS011;43322;52.230;5.702;2023-08-12T01:41:11;8.25;;;7.47;;
23718;SDS011;43322;52.230;5.702;2023-08-12T01:43:39;9.77;;;8.15;;
23718;SDS011;43322;52.230;5.702;2023-08-12T01:46:07;9.38;;;7.88;;
23718;SDS011;43322;52.230;5.702;2023-08-12T01:48:34;10.25;;;7.85;;
23718;SDS011;43322;52.230;5.702;2023-08-12T01:51:00;8.60;;;7.80;;
23718;SDS011;43322;52.230;5.702;2023-08-12T01:53:28;8.00;;;7.22;;
23718;SDS011;43322;52.230;5.702;2023-08-12T01:55:56;9.05;;;7.50;;
23718;SDS011;43322;52.230;5.702;2023-08-12T01:58:22;7.80;;;6.93;;
23718;SDS011;43322;52.230;5.702;2023-08-12T02:00:51;8.88;;;7.97;;
23718;SDS011;43322;52.230;5.702;2023-08-12T02:03:17;8.60;;;7.85;;
23718;SDS011;43322;52.230;5.702;2023-08-12T02:05:44;9.02;;;8.13;;
23718;SDS011;43322;52.230;5.702;2023-08-12T02:08:11;8.45;;;7.63;;
23718;SDS011;43322;52.230;5.702;2023-08-12T02:10:38;9.02;;;8.02;;
23718;SDS011;43322;52.230;5.702;2023-08-12T02:13:06;10.45;;;8.10;;
23718;SDS011;43322;52.230;5.702;2023-08-12T02:15:33;10.20;;;9.18;;
23718;SDS011;43322;52.230;5.702;2023-08-12T02:18:00;9.63;;;8.65;;
23718;SDS011;43322;52.230;5.702;2023-08-12T02:20:27;10.20;;;8.70;;
23718;SDS011;43322;52.230;5.702;2023-08-12T02:22:53;10.07;;;9.00;;
23718;SDS011;43322;52.230;5.702;2023-08-12T02:25:20;12.48;;;8.80;;
23718;SDS011;43322;52.230;5.702;2023-08-12T02:27:47;10.93;;;7.80;;
23718;SDS011;43322;52.230;5.702;2023-08-12T02:30:15;12.35;;;8.55;;
23718;SDS011;43322;52.230;5.702;2023-08-12T02:32:41;10.07;;;8.93;;
23718;SDS011;43322;52.230;5.702;2023-08-12T02:35:09;12.68;;;9.43;;
23718;SDS011;43322;52.230;5.702;2023-08-12T02:37:36;13.70;;;9.98;;
23718;SDS011;43322;52.230;5.702;2023-08-12T02:40:03;17.13;;;12.55;;
23718;SDS011;43322;52.230;5.702;2023-08-12T02:42:31;15.88;;;10.65;;
23718;SDS011;43322;52.230;5.702;2023-08-12T02:44:57;14.15;;;11.38;;
23718;SDS011;43322;52.230;5.702;2023-08-12T02:47:26;13.07;;;11.32;;
23718;SDS011;43322;52.230;5.702;2023-08-12T02:49:53;16.42;;;12.90;;
23718;SDS011;43322;52.230;5.702;2023-08-12T02:52:20;12.45;;;10.82;;
23718;SDS011;43322;52.230;5.702;2023-08-12T02:54:46;16.23;;;12.63;;
23718;SDS011;43322;52.230;5.702;2023-08-12T02:57:13;13.18;;;11.35;;
23718;SDS011;43322;52.230;5.702;2023-08-12T02:59:40;13.93;;;11.45;;
23718;SDS011;43322;52.230;5.702;2023-08-12T03:02:06;19.10;;;13.10;;
23718;SDS011;43322;52.230;5.702;2023-08-12T03:04:34;18.30;;;14.13;;
23718;SDS011;43322;52.230;5.702;2023-08-12T03:07:01;21.52;;;13.68;;
23718;SDS011;43322;52.230;5.702;2023-08-12T03:09:28;16.35;;;13.80;;
23718;SDS011;43322;52.230;5.702;2023-08-12T03:11:55;18.80;;;13.35;;
23718;SDS011;43322;52.230;5.702;2023-08-12T03:14:21;19.63;;;14.27;;
23718;SDS011;43322;52.230;5.702;2023-08-12T03:16:48;19.70;;;14.40;;
23718;SDS011;43322;52.230;5.702;2023-08-12T03:19:15;21.75;;;15.43;;
23718;SDS011;43322;52.230;5.702;2023-08-12T03:21:43;26.50;;;15.90;;
23718;SDS011;43322;52.230;5.702;2023-08-12T03:24:09;21.23;;;14.05;;
23718;SDS011;43322;52.230;5.702;2023-08-12T03:26:36;28.52;;;16.70;;
23718;SDS011;43322;52.230;5.702;2023-08-12T03:29:03;23.88;;;16.42;;
23718;SDS011;43322;52.230;5.702;2023-08-12T03:31:29;21.08;;;15.40;;
23718;SDS011;43322;52.230;5.702;2023-08-12T03:33:56;26.92;;;16.35;;
23718;SDS011;43322;52.230;5.702;2023-08-12T03:36:23;17.08;;;14.23;;
23718;SDS011;43322;52.230;5.702;2023-08-12T03:38:50;19.70;;;13.57;;
23718;SDS011;43322;52.230;5.702;2023-08-12T03:41:18;20.85;;;15.30;;
23718;SDS011;43322;52.230;5.702;2023-08-12T03:43:44;23.83;;;16.60;;
23718;SDS011;43322;52.230;5.702;2023-08-12T03:46:11;25.23;;;17.02;;
23718;SDS011;43322;52.230;5.702;2023-08-12T03:48:37;23.63;;;15.73;;
23718;SDS011;43322;52.230;5.702;2023-08-12T03:51:04;23.23;;;15.68;;
23718;SDS011;43322;52.230;5.702;2023-08-12T03:53:31;14.27;;;12.27;;
23718;SDS011;43322;52.230;5.702;2023-08-12T03:55:59;18.38;;;14.25;;
23718;SDS011;43322;52.230;5.702;2023-08-12T03:58:26;24.65;;;17.20;;
23718;SDS011;43322;52.230;5.702;2023-08-12T04:00:52;24.92;;;16.75;;
23718;SDS011;43322;52.230;5.702;2023-08-12T04:03:19;21.67;;;15.70;;
23718;SDS011;43322;52.230;5.702;2023-08-12T04:05:49;19.90;;;15.10;;
23718;SDS011;43322;52.230;5.702;2023-08-12T04:08:17;19.02;;;15.73;;
23718;SDS011;43322;52.230;5.702;2023-08-12T04:10:45;18.70;;;14.70;;
23718;SDS011;43322;52.230;5.702;2023-08-12T04:13:14;18.92;;;15.80;;
23718;SDS011;43322;52.230;5.702;2023-08-12T04:15:41;27.10;;;16.67;;
23718;SDS011;43322;52.230;5.702;2023-08-12T04:18:07;19.95;;;14.77;;
23718;SDS011;43322;52.230;5.702;2023-08-12T04:20:34;18.52;;;14.45;;
23718;SDS011;43322;52.230;5.702;2023-08-12T04:23:03;25.60;;;17.40;;
23718;SDS011;43322;52.230;5.702;2023-08-12T04:25:30;26.98;;;19.05;;
23718;SDS011;43322;52.230;5.702;2023-08-12T04:27:56;34.53;;;21.00;;
23718;SDS011;43322;52.230;5.702;2023-08-12T04:30:25;31.17;;;20.17;;
23718;SDS011;43322;52.230;5.702;2023-08-12T04:32:51;31.35;;;20.23;;
23718;SDS011;43322;52.230;5.702;2023-08-12T04:35:18;26.20;;;19.27;;
23718;SDS011;43322;52.230;5.702;2023-08-12T04:37:45;29.25;;;19.75;;
23718;SDS011;43322;52.230;5.702;2023-08-12T04:40:11;24.80;;;18.35;;
23718;SDS011;43322;52.230;5.702;2023-08-12T04:42:38;37.90;;;22.83;;
23718;SDS011;43322;52.230;5.702;2023-08-12T04:45:05;23.73;;;18.77;;
23718;SDS011;43322;52.230;5.702;2023-08-12T04:47:34;28.08;;;19.73;;
23718;SDS011;43322;52.230;5.702;2023-08-12T04:50:02;26.02;;;18.42;;
23718;SDS011;43322;52.230;5.702;2023-08-12T04:52:29;24.20;;;17.75;;
23718;SDS011;43322;52.230;5.702;2023-08-12T04:54:55;32.85;;;21.27;;
23718;SDS011;43322;52.230;5.702;2023-08-12T04:57:22;31.98;;;20.63;;
23718;SDS011;43322;52.230;5.702;2023-08-12T04:59:49;21.70;;;17.45;;
23718;SDS011;43322;52.230;5.702;2023-08-12T05:02:16;25.85;;;18.73;;
23718;SDS011;43322;52.230;5.702;2023-08-12T05:04:45;22.63;;;17.73;;
23718;SDS011;43322;52.230;5.702;2023-08-12T05:07:13;28.23;;;19.40;;
23718;SDS011;43322;52.230;5.702;2023-08-12T05:09:40;30.42;;;20.98;;
23718;SDS011;43322;52.230;5.702;2023-08-12T05:12:08;28.50;;;21.17;;
23718;SDS011;43322;52.230;5.702;2023-08-12T05:14:35;28.50;;;18.60;;
23718;SDS011;43322;52.230;5.702;2023-08-12T05:17:02;25.10;;;17.48;;
23718;SDS011;43322;52.230;5.702;2023-08-12T05:19:29;31.63;;;21.38;;
23718;SDS011;43322;52.230;5.702;2023-08-12T05:21:57;26.85;;;19.42;;
23718;SDS011;43322;52.230;5.702;2023-08-12T05:24:24;26.80;;;19.67;;
23718;SDS011;43322;52.230;5.702;2023-08-12T05:26:50;25.10;;;17.17;;
23718;SDS011;43322;52.230;5.702;2023-08-12T05:29:17;22.65;;;17.50;;
23718;SDS011;43322;52.230;5.702;2023-08-12T05:31:44;18.35;;;16.45;;
23718;SDS011;43322;52.230;5.702;2023-08-12T05:34:10;20.33;;;14.93;;
23718;SDS011;43322;52.230;5.702;2023-08-12T05:36:37;20.85;;;15.85;;
23718;SDS011;43322;52.230;5.702;2023-08-12T05:39:05;26.67;;;18.80;;
23718;SDS011;43322;52.230;5.702;2023-08-12T05:41:32;25.63;;;16.65;;
23718;SDS011;43322;52.230;5.702;2023-08-12T05:43:58;23.60;;;17.65;;
23718;SDS011;43322;52.230;5.702;2023-08-12T05:46:25;25.83;;;19.13;;
23718;SDS011;43322;52.230;5.702;2023-08-12T05:48:52;30.15;;;19.75;;
23718;SDS011;43322;52.230;5.702;2023-08-12T05:51:18;23.83;;;18.88;;
23718;SDS011;43322;52.230;5.702;2023-08-12T05:53:45;22.73;;;17.85;;
23718;SDS011;43322;52.230;5.702;2023-08-12T05:56:13;34.17;;;21.02;;
23718;SDS011;43322;52.230;5.702;2023-08-12T05:58:39;24.55;;;17.13;;
23718;SDS011;43322;52.230;5.702;2023-08-12T06:01:06;29.02;;;19.17;;
23718;SDS011;43322;52.230;5.702;2023-08-12T06:03:33;22.10;;;18.23;;
23718;SDS011;43322;52.230;5.702;2023-08-12T06:05:59;35.95;;;19.42;;
23718;SDS011;43322;52.230;5.702;2023-08-12T06:08:26;26.25;;;19.63;;
23718;SDS011;43322;52.230;5.702;2023-08-12T06:10:53;20.33;;;16.73;;
23718;SDS011;43322;52.230;5.702;2023-08-12T06:13:21;23.10;;;17.40;;
23718;SDS011;43322;52.230;5.702;2023-08-12T06:15:47;25.77;;;19.45;;
23718;SDS011;43322;52.230;5.702;2023-08-12T06:18:14;26.25;;;17.92;;
23718;SDS011;43322;52.230;5.702;2023-08-12T06:20:41;23.20;;;18.13;;
23718;SDS011;43322;52.230;5.702;2023-08-12T06:23:07;28.55;;;19.58;;
23718;SDS011;43322;52.230;5.702;2023-08-12T06:25:34;28.77;;;18.33;;
23718;SDS011;43322;52.230;5.702;2023-08-12T06:28:01;25.88;;;19.45;;
23718;SDS011;43322;52.230;5.702;2023-08-12T06:30:30;29.15;;;20.08;;
23718;SDS011;43322;52.230;5.702;2023-08-12T06:32:57;25.77;;;17.35;;
23718;SDS011;43322;52.230;5.702;2023-08-12T06:35:24;25.80;;;19.20;;
23718;SDS011;43322;52.230;5.702;2023-08-12T06:37:50;21.02;;;15.68;;
23718;SDS011;43322;52.230;5.702;2023-08-12T06:40:17;17.83;;;14.85;;
23718;SDS011;43322;52.230;5.702;2023-08-12T06:42:44;20.58;;;16.00;;
23718;SDS011;43322;52.230;5.702;2023-08-12T06:45:11;17.73;;;14.77;;
23718;SDS011;43322;52.230;5.702;2023-08-12T06:47:39;14.93;;;13.40;;
23718;SDS011;43322;52.230;5.702;2023-08-12T06:50:06;16.30;;;12.80;;
23718;SDS011;43322;52.230;5.702;2023-08-12T06:52:33;16.67;;;13.98;;
23718;SDS011;43322;52.230;5.702;2023-08-12T06:55:00;10.75;;;9.75;;
23718;SDS011;43322;52.230;5.702;2023-08-12T06:57:27;9.75;;;8.75;;
23718;SDS011;43322;52.230;5.702;2023-08-12T06:59:53;8.05;;;7.28;;
23718;SDS011;43322;52.230;5.702;2023-08-12T07:02:20;7.18;;;6.53;;
23718;SDS011;43322;52.230;5.702;2023-08-12T07:04:48;7.93;;;7.30;;
23718;SDS011;43322;52.230;5.702;2023-08-12T07:07:15;7.75;;;6.95;;
23718;SDS011;43322;52.230;5.702;2023-08-12T07:09:41;8.45;;;7.63;;
23718;SDS011;43322;52.230;5.702;2023-08-12T07:12:08;6.32;;;5.80;;
23718;SDS011;43322;52.230;5.702;2023-08-12T07:14:35;8.02;;;7.22;;
23718;SDS011;43322;52.230;5.702;2023-08-12T07:17:02;6.75;;;6.25;;
23718;SDS011;43322;52.230;5.702;2023-08-12T07:19:28;7.38;;;6.72;;
23718;SDS011;43322;52.230;5.702;2023-08-12T07:21:56;7.45;;;6.30;;
23718;SDS011;43322;52.230;5.702;2023-08-12T07:24:23;7.50;;;6.80;;
23718;SDS011;43322;52.230;5.702;2023-08-12T07:26:50;6.22;;;5.72;;
23718;SDS011;43322;52.230;5.702;2023-08-12T07:29:16;6.53;;;5.93;;
23718;SDS011;43322;52.230;5.702;2023-08-12T07:31:43;7.60;;;7.07;;
23718;SDS011;43322;52.230;5.702;2023-08-12T07:34:10;8.00;;;7.40;;
23718;SDS011;43322;52.230;5.702;2023-08-12T07:36:38;7.13;;;6.65;;
23718;SDS011;43322;52.230;5.702;2023-08-12T07:39:06;7.22;;;6.70;;
23718;SDS011;43322;52.230;5.702;2023-08-12T07:41:33;6.55;;;6.15;;
23718;SDS011;43322;52.230;5.702;2023-08-12T07:43:59;7.75;;;7.25;;
23718;SDS011;43322;52.230;5.702;2023-08-12T07:46:27;7.05;;;6.55;;
23718;SDS011;43322;52.230;5.702;2023-08-12T07:48:53;8.02;;;7.43;;
23718;SDS011;43322;52.230;5.702;2023-08-12T07:51:20;8.15;;;7.65;;
23718;SDS011;43322;52.230;5.702;2023-08-12T07:53:46;7.30;;;6.90;;
23718;SDS011;43322;52.230;5.702;2023-08-12T07:56:14;7.97;;;7.38;;
23718;SDS011;43322;52.230;5.702;2023-08-12T07:58:41;7.45;;;6.97;;
23718;SDS011;43322;52.230;5.702;2023-08-12T08:01:08;8.55;;;7.78;;
23718;SDS011;43322;52.230;5.702;2023-08-12T08:03:34;8.85;;;8.18;;
23718;SDS011;43322;52.230;5.702;2023-08-12T08:06:01;6.68;;;6.28;;
23718;SDS011;43322;52.230;5.702;2023-08-12T08:08:28;5.57;;;5.18;;
23718;SDS011;43322;52.230;5.702;2023-08-12T08:10:55;6.43;;;4.78;;
23718;SDS011;43322;52.230;5.702;2023-08-12T08:13:23;5.18;;;4.88;;
23718;SDS011;43322;52.230;5.702;2023-08-12T08:15:49;5.40;;;4.90;;
23718;SDS011;43322;52.230;5.702;2023-08-12T08:18:16;4.85;;;4.53;;
23718;SDS011;43322;52.230;5.702;2023-08-12T08:20:43;4.80;;;4.50;;
23718;SDS011;43322;52.230;5.702;2023-08-12T08:23:10;5.18;;;4.88;;
23718;SDS011;43322;52.230;5.702;2023-08-12T08:25:36;4.75;;;4.43;;
23718;SDS011;43322;52.230;5.702;2023-08-12T08:28:03;4.95;;;4.63;;
23718;SDS011;43322;52.230;5.702;2023-08-12T08:30:31;5.75;;;5.38;;
23718;SDS011;43322;52.230;5.702;2023-08-12T08:32:58;4.05;;;3.85;;
23718;SDS011;43322;52.230;5.702;2023-08-12T08:35:24;4.50;;;4.30;;
23718;SDS011;43322;52.230;5.702;2023-08-12T08:37:51;3.60;;;3.40;;
23718;SDS011;43322;52.230;5.702;2023-08-12T08:40:18;3.67;;;3.47;;
23718;SDS011;43322;52.230;5.702;2023-08-12T08:42:45;4.05;;;3.75;;
23718;SDS011;43322;52.230;5.702;2023-08-12T08:45:17;3.70;;;3.50;;
23718;SDS011;43322;52.230;5.702;2023-08-12T08:47:45;3.70;;;3.50;;
23718;SDS011;43322;52.230;5.702;2023-08-12T08:50:13;3.30;;;3.20;;
23718;SDS011;43322;52.230;5.702;2023-08-12T08:52:41;2.50;;;2.40;;
23718;SDS011;43322;52.230;5.702;2023-08-12T08:55:08;2.58;;;2.47;;
23718;SDS011;43322;52.230;5.702;2023-08-12T08:57:35;2.90;;;2.80;;
23718;SDS011;43322;52.230;5.702;2023-08-12T09:00:03;2.88;;;2.67;;
23718;SDS011;43322;52.230;5.702;2023-08-12T09:02:32;2.88;;;2.78;;
23718;SDS011;43322;52.230;5.702;2023-08-12T09:05:01;2.58;;;2.47;;
23718;SDS011;43322;52.230;5.702;2023-08-12T09:07:28;3.40;;;3.22;;
23718;SDS011;43322;52.230;5.702;2023-08-12T09:09:56;2.72;;;2.63;;
23718;SDS011;43322;52.230;5.702;2023-08-12T09:12:24;3.35;;;3.13;;
23718;SDS011;43322;52.230;5.702;2023-08-12T09:14:51;2.53;;;2.42;;
23718;SDS011;43322;52.230;5.702;2023-08-12T09:17:18;3.10;;;2.92;;
23718;SDS011;43322;52.230;5.702;2023-08-12T09:19:46;2.35;;;2.25;;
23718;SDS011;43322;52.230;5.702;2023-08-12T09:22:14;2.75;;;2.55;;
23718;SDS011;43322;52.230;5.702;2023-08-12T09:24:40;3.30;;;3.20;;
23718;SDS011;43322;52.230;5.702;2023-08-12T09:27:09;2.88;;;2.78;;
23718;SDS011;43322;52.230;5.702;2023-08-12T09:29:36;2.60;;;2.40;;
23718;SDS011;43322;52.230;5.702;2023-08-12T09:32:05;2.13;;;2.03;;
23718;SDS011;43322;52.230;5.702;2023-08-12T09:34:35;1.50;;;1.50;;
23718;SDS011;43322;52.230;5.702;2023-08-12T09:37:02;5.47;;;2.10;;
23718;SDS011;43322;52.230;5.702;2023-08-12T09:39:30;1.77;;;1.67;;
23718;SDS011;43322;52.230;5.702;2023-08-12T09:41:58;2.00;;;1.90;;
23718;SDS011;43322;52.230;5.702;2023-08-12T09:44:26;1.38;;;1.38;;
23718;SDS011;43322;52.230;5.702;2023-08-12T09:46:56;1.15;;;1.15;;
23718;SDS011;43322;52.230;5.702;2023-08-12T09:49:23;1.27;;;1.10;;
23718;SDS011;43322;52.230;5.702;2023-08-12T09:51:50;1.10;;;1.10;;
23718;SDS011;43322;52.230;5.702;2023-08-12T09:54:17;1.23;;;1.10;;
23718;SDS011;43322;52.230;5.702;2023-08-12T09:56:46;1.48;;;1.38;;
23718;SDS011;43322;52.230;5.702;2023-08-12T09:59:14;1.05;;;1.05;;
23718;SDS011;43322;52.230;5.702;2023-08-12T10:01:45;1.00;;;1.00;;
23718;SDS011;43322;52.230;5.702;2023-08-12T10:04:13;1.30;;;1.08;;
23718;SDS011;43322;52.230;5.702;2023-08-12T10:06:42;3.17;;;1.60;;
23718;SDS011;43322;52.230;5.702;2023-08-12T10:09:10;1.30;;;1.20;;
23718;SDS011;43322;52.230;5.702;2023-08-12T10:11:37;3.13;;;1.60;;
23718;SDS011;43322;52.230;5.702;2023-08-12T10:14:05;3.13;;;1.42;;
23718;SDS011;43322;52.230;5.702;2023-08-12T10:16:34;1.63;;;1.48;;
23718;SDS011;43322;52.230;5.702;2023-08-12T10:19:01;7.15;;;1.98;;
23718;SDS011;43322;52.230;5.702;2023-08-12T10:21:30;2.00;;;1.90;;
23718;SDS011;43322;52.230;5.702;2023-08-12T10:23:57;3.30;;;1.83;;
23718;SDS011;43322;52.230;5.702;2023-08-12T10:26:25;2.03;;;1.83;;
23718;SDS011;43322;52.230;5.702;2023-08-12T10:28:52;4.18;;;2.15;;
23718;SDS011;43322;52.230;5.702;2023-08-12T10:31:22;4.20;;;2.65;;
23718;SDS011;43322;52.230;5.702;2023-08-12T10:33:52;2.25;;;2.00;;
23718;SDS011;43322;52.230;5.702;2023-08-12T10:36:20;3.17;;;2.30;;
23718;SDS011;43322;52.230;5.702;2023-08-12T10:38:47;2.33;;;2.08;;
23718;SDS011;43322;52.230;5.702;2023-08-12T10:41:17;3.13;;;2.53;;
23718;SDS011;43322;52.230;5.702;2023-08-12T10:43:49;3.88;;;2.00;;
23718;SDS011;43322;52.230;5.702;2023-08-12T10:46:28;5.22;;;2.65;;
23718;SDS011;43322;52.230;5.702;2023-08-12T10:48:57;2.95;;;2.22;;
23718;SDS011;43322;52.230;5.702;2023-08-12T10:51:39;4.97;;;2.40;;
23718;SDS011;43322;52.230;5.702;2023-08-12T10:54:16;4.07;;;2.35;;
23718;SDS011;43322;52.230;5.702;2023-08-12T10:59:47;5.22;;;2.92;;
23718;SDS011;43322;52.230;5.702;2023-08-12T11:02:20;5.03;;;2.58;;
23718;SDS011;43322;52.230;5.702;2023-08-12T11:04:49;6.13;;;2.88;;
23718;SDS011;43322;52.230;5.702;2023-08-12T11:07:17;5.05;;;2.58;;
23718;SDS011;43322;52.230;5.702;2023-08-12T11:09:45;3.88;;;2.10;;
23718;SDS011;43322;52.230;5.702;2023-08-12T11:12:17;5.97;;;2.47;;
23718;SDS011;43322;52.230;5.702;2023-08-12T11:14:47;6.65;;;2.30;;
23718;SDS011;43322;52.230;5.702;2023-08-12T11:17:15;6.03;;;2.33;;
23718;SDS011;43322;52.230;5.702;2023-08-12T11:19:43;3.35;;;2.00;;
23718;SDS011;43322;52.230;5.702;2023-08-12T11:22:10;5.80;;;1.80;;
23718;SDS011;43322;52.230;5.702;2023-08-12T11:24:38;3.97;;;2.13;;
23718;SDS011;43322;52.230;5.702;2023-08-12T11:27:08;6.43;;;2.47;;
23718;SDS011;43322;52.230;5.702;2023-08-12T11:29:35;3.92;;;1.90;;
23718;SDS011;43322;52.230;5.702;2023-08-12T11:32:03;2.88;;;1.80;;
23718;SDS011;43322;52.230;5.702;2023-08-12T11:34:31;3.35;;;1.85;;
23718;SDS011;43322;52.230;5.702;2023-08-12T11:36:59;2.88;;;1.65;;
23718;SDS011;43322;52.230;5.702;2023-08-12T11:39:26;4.63;;;1.80;;
23718;SDS011;43322;52.230;5.702;2023-08-12T11:41:53;6.07;;;1.83;;
23718;SDS011;43322;52.230;5.702;2023-08-12T11:44:21;6.28;;;1.95;;
23718;SDS011;43322;52.230;5.702;2023-08-12T11:46:48;5.25;;;1.75;;
23718;SDS011;43322;52.230;5.702;2023-08-12T11:49:15;5.40;;;1.60;;
23718;SDS011;43322;52.230;5.702;2023-08-12T11:51:42;5.63;;;2.28;;
23718;SDS011;43322;52.230;5.702;2023-08-12T11:54:12;2.80;;;1.60;;
23718;SDS011;43322;52.230;5.702;2023-08-12T11:56:39;3.83;;;1.80;;
23718;SDS011;43322;52.230;5.702;2023-08-12T11:59:06;3.20;;;1.77;;
23718;SDS011;43322;52.230;5.702;2023-08-12T12:01:33;3.25;;;1.50;;
23718;SDS011;43322;52.230;5.702;2023-08-12T12:04:00;5.60;;;1.83;;
23718;SDS011;43322;52.230;5.702;2023-08-12T12:06:28;3.15;;;1.90;;
23718;SDS011;43322;52.230;5.702;2023-08-12T12:08:59;7.38;;;2.17;;
23718;SDS011;43322;52.230;5.702;2023-08-12T12:11:30;5.43;;;1.60;;
23718;SDS011;43322;52.230;5.702;2023-08-12T12:13:59;3.25;;;1.48;;
23718;SDS011;43322;52.230;5.702;2023-08-12T12:16:36;5.45;;;1.83;;
23718;SDS011;43322;52.230;5.702;2023-08-12T12:19:12;3.08;;;1.20;;
23718;SDS011;43322;52.230;5.702;2023-08-12T12:21:41;3.40;;;1.73;;
23718;SDS011;43322;52.230;5.702;2023-08-12T12:24:10;3.20;;;1.98;;
23718;SDS011;43322;52.230;5.702;2023-08-12T12:26:38;3.35;;;1.30;;
23718;SDS011;43322;52.230;5.702;2023-08-12T12:29:05;2.50;;;1.50;;
23718;SDS011;43322;52.230;5.702;2023-08-12T12:31:32;5.18;;;1.50;;
23718;SDS011;43322;52.230;5.702;2023-08-12T12:34:00;3.72;;;1.27;;
23718;SDS011;43322;52.230;5.702;2023-08-12T12:36:28;3.17;;;1.95;;
23718;SDS011;43322;52.230;5.702;2023-08-12T12:38:54;3.72;;;1.50;;
23718;SDS011;43322;52.230;5.702;2023-08-12T12:41:21;2.13;;;1.60;;
23718;SDS011;43322;52.230;5.702;2023-08-12T12:43:49;4.38;;;1.45;;
23718;SDS011;43322;52.230;5.702;2023-08-12T12:46:16;3.25;;;1.48;;
23718;SDS011;43322;52.230;5.702;2023-08-12T12:48:42;3.63;;;1.73;;
23718;SDS011;43322;52.230;5.702;2023-08-12T12:51:10;2.70;;;1.52;;
23718;SDS011;43322;52.230;5.702;2023-08-12T12:53:36;2.60;;;1.40;;
23718;SDS011;43322;52.230;5.702;2023-08-12T12:56:03;3.55;;;1.35;;
23718;SDS011;43322;52.230;5.702;2023-08-12T12:58:30;4.70;;;1.75;;
23718;SDS011;43322;52.230;5.702;2023-08-12T13:00:59;3.63;;;1.60;;
23718;SDS011;43322;52.230;5.702;2023-08-12T13:03:26;5.70;;;1.85;;
23718;SDS011;43322;52.230;5.702;2023-08-12T13:05:53;5.32;;;1.80;;
23718;SDS011;43322;52.230;5.702;2023-08-12T13:08:20;3.03;;;1.80;;
23718;SDS011;43322;52.230;5.702;2023-08-12T13:10:47;2.53;;;1.73;;
23718;SDS011;43322;52.230;5.702;2023-08-12T13:13:14;3.53;;;1.40;;
23718;SDS011;43322;52.230;5.702;2023-08-12T13:15:41;4.70;;;1.50;;
23718;SDS011;43322;52.230;5.702;2023-08-12T13:18:09;4.25;;;1.55;;
23718;SDS011;43322;52.230;5.702;2023-08-12T13:20:36;3.22;;;1.42;;
23718;SDS011;43322;52.230;5.702;2023-08-12T13:23:03;5.25;;;1.40;;
23718;SDS011;43322;52.230;5.702;2023-08-12T13:25:30;5.13;;;2.00;;
23718;SDS011;43322;52.230;5.702;2023-08-12T13:27:58;5.88;;;1.85;;
23718;SDS011;43322;52.230;5.702;2023-08-12T13:30:25;3.40;;;1.80;;
23718;SDS011;43322;52.230;5.702;2023-08-12T13:32:52;4.10;;;1.90;;
23718;SDS011;43322;52.230;5.702;2023-08-12T13:35:21;2.60;;;1.60;;
23718;SDS011;43322;52.230;5.702;2023-08-12T13:37:48;2.92;;;1.65;;
23718;SDS011;43322;52.230;5.702;2023-08-12T13:40:16;6.70;;;2.10;;
23718;SDS011;43322;52.230;5.702;2023-08-12T13:42:42;7.97;;;2.30;;
23718;SDS011;43322;52.230;5.702;2023-08-12T13:45:11;3.53;;;1.77;;
23718;SDS011;43322;52.230;5.702;2023-08-12T13:47:38;6.45;;;1.92;;
23718;SDS011;43322;52.230;5.702;2023-08-12T13:50:05;3.92;;;1.60;;
23718;SDS011;43322;52.230;5.702;2023-08-12T13:52:33;6.93;;;1.80;;
23718;SDS011;43322;52.230;5.702;2023-08-12T13:55:00;4.85;;;1.90;;
23718;SDS011;43322;52.230;5.702;2023-08-12T13:57:28;5.95;;;1.80;;
23718;SDS011;43322;52.230;5.702;2023-08-12T13:59:55;3.95;;;2.03;;
23718;SDS011;43322;52.230;5.702;2023-08-12T14:02:21;3.38;;;1.80;;
23718;SDS011;43322;52.230;5.702;2023-08-12T14:04:48;4.05;;;1.88;;
23718;SDS011;43322;52.230;5.702;2023-08-12T14:07:15;5.53;;;2.13;;
23718;SDS011;43322;52.230;5.702;2023-08-12T14:09:46;4.15;;;1.73;;
23718;SDS011;43322;52.230;5.702;2023-08-12T14:12:13;4.43;;;2.03;;
23718;SDS011;43322;52.230;5.702;2023-08-12T14:14:40;5.43;;;1.88;;
23718;SDS011;43322;52.230;5.702;2023-08-12T14:17:06;4.03;;;2.05;;
23718;SDS011;43322;52.230;5.702;2023-08-12T14:19:33;4.68;;;2.10;;
23718;SDS011;43322;52.230;5.702;2023-08-12T14:21:59;4.63;;;1.95;;
23718;SDS011;43322;52.230;5.702;2023-08-12T14:24:26;5.40;;;1.95;;
23718;SDS011;43322;52.230;5.702;2023-08-12T14:26:54;6.10;;;2.28;;
23718;SDS011;43322;52.230;5.702;2023-08-12T14:29:21;4.07;;;1.70;;
23718;SDS011;43322;52.230;5.702;2023-08-12T14:31:47;8.70;;;2.47;;
23718;SDS011;43322;52.230;5.702;2023-08-12T14:34:14;7.65;;;2.08;;
23718;SDS011;43322;52.230;5.702;2023-08-12T14:36:41;6.18;;;2.42;;
23718;SDS011;43322;52.230;5.702;2023-08-12T14:39:07;4.53;;;1.90;;
23718;SDS011;43322;52.230;5.702;2023-08-12T14:41:34;2.67;;;1.67;;
23718;SDS011;43322;52.230;5.702;2023-08-12T14:44:02;6.40;;;1.55;;